Time;durP1;ratioP1;P1;durP2;ratioP2;P2;SDS_P1;SDS_P2;PMS_P1;PMS_P2;Temp;Humidity;BMP_temperature;BMP_pressure;BME280_temperature;BME280_humidity;BME280_pressure;Samples;Min_cycle;Max_cycle;Signal;HPM_P1;HPM_P2
2023/01/23 00:01:32;;;;;;;48.43;27.43;;;;;;;-0.33;100.00;103351.38;5029959;28;20045;-59
2023/01/23 00:03:59;;;;;;;48.87;25.80;;;;;;;-0.32;100.00;103347.88;5026017;28;20034;-59
2023/01/23 00:06:25;;;;;;;46.63;26.43;;;;;;;-0.30;100.00;103340.91;5024036;28;20104;-58
2023/01/23 00:08:51;;;;;;;46.03;26.33;;;;;;;-0.29;100.00;103347.81;5027924;28;20112;-58
2023/01/23 00:11:20;;;;;;;42.17;26.17;;;;;;;-0.29;100.00;103342.59;5023814;28;20128;-59
2023/01/23 00:13:45;;;;;;;45.67;26.43;;;;;;;-0.23;100.00;103341.63;5027436;28;20067;-58
2023/01/23 00:16:14;;;;;;;46.23;26.63;;;;;;;-0.21;100.00;103345.06;5029060;28;20039;-58
2023/01/23 00:18:40;;;;;;;48.83;26.33;;;;;;;-0.20;100.00;103347.63;5024115;28;20034;-58
2023/01/23 00:21:09;;;;;;;49.40;25.43;;;;;;;-0.20;100.00;103342.41;5033677;28;20099;-59
2023/01/23 00:23:35;;;;;;;45.27;26.43;;;;;;;-0.19;100.00;103349.34;5015655;28;20448;-59
2023/01/23 00:26:05;;;;;;;48.20;25.47;;;;;;;-0.19;100.00;103351.97;5023203;28;20132;-58
2023/01/23 00:28:31;;;;;;;46.87;25.83;;;;;;;-0.19;100.00;103354.56;5031187;28;20080;-58
2023/01/23 00:31:04;;;;;;;43.97;25.43;;;;;;;-0.17;100.00;103351.94;5024672;28;20921;-58
2023/01/23 00:33:30;;;;;;;44.13;25.63;;;;;;;-0.19;100.00;103351.97;5028827;28;20108;-59
2023/01/23 00:35:55;;;;;;;45.47;26.53;;;;;;;-0.18;100.00;103358.94;5032243;28;20160;-58
2023/01/23 00:38:20;;;;;;;47.17;26.40;;;;;;;-0.21;100.00;103356.34;5026891;28;20124;-58
2023/01/23 00:40:46;;;;;;;50.10;27.00;;;;;;;-0.22;100.00;103370.28;5020003;28;20400;-59
2023/01/23 00:43:11;;;;;;;46.40;26.33;;;;;;;-0.22;100.00;103370.28;5023556;28;20083;-60
2023/01/23 00:45:37;;;;;;;49.33;26.87;;;;;;;-0.21;100.00;103372.00;5027154;28;20037;-58
2023/01/23 00:48:02;;;;;;;48.30;27.23;;;;;;;-0.22;100.00;103375.50;5022977;28;20136;-59
2023/01/23 00:50:28;;;;;;;49.93;26.83;;;;;;;-0.21;100.00;103371.13;5021515;28;20037;-60
2023/01/23 00:52:53;;;;;;;47.87;26.93;;;;;;;-0.20;100.00;103378.94;5023229;28;20047;-59
2023/01/23 00:55:18;;;;;;;47.17;26.03;;;;;;;-0.19;100.00;103374.59;5022591;28;20436;-58
2023/01/23 00:57:43;;;;;;;44.67;26.37;;;;;;;-0.22;100.00;103370.28;5023973;28;20057;-58
2023/01/23 01:00:09;;;;;;;42.63;25.83;;;;;;;-0.21;100.00;103372.00;5024911;28;20030;-58
2023/01/23 01:02:35;;;;;;;44.13;25.70;;;;;;;-0.20;100.00;103363.28;5022919;28;20034;-58
2023/01/23 01:05:00;;;;;;;47.20;26.60;;;;;;;-0.18;100.00;103360.66;5023758;28;20026;-58
2023/01/23 01:07:25;;;;;;;42.77;24.87;;;;;;;-0.17;100.00;103363.25;5021801;28;20029;-58
2023/01/23 01:09:51;;;;;;;43.13;25.70;;;;;;;-0.15;100.00;103360.63;5021461;28;20041;-58
2023/01/23 01:12:18;;;;;;;40.17;24.37;;;;;;;-0.11;100.00;103366.63;5022197;28;20554;-58
2023/01/23 01:14:43;;;;;;;42.63;25.33;;;;;;;-0.15;100.00;103371.88;5023723;28;20543;-61
2023/01/23 01:17:08;;;;;;;40.80;24.00;;;;;;;-0.14;100.00;103371.00;5026328;28;20041;-58
2023/01/23 01:19:34;;;;;;;46.07;25.30;;;;;;;-0.15;100.00;103366.69;5029975;28;20044;-58
2023/01/23 01:21:59;;;;;;;44.43;25.93;;;;;;;-0.13;100.00;103366.66;5027569;28;20037;-58
2023/01/23 01:24:25;;;;;;;43.10;25.13;;;;;;;-0.11;100.00;103361.41;5030010;28;20025;-57
2023/01/23 01:26:50;;;;;;;41.37;24.70;;;;;;;-0.13;100.00;103369.25;5018359;28;20033;-58
2023/01/23 01:29:16;;;;;;;45.23;24.57;;;;;;;-0.16;100.00;103375.38;5027052;28;20030;-58
2023/01/23 01:31:41;;;;;;;45.17;25.53;;;;;;;-0.16;100.00;103379.75;5029051;28;20044;-58
2023/01/23 01:34:06;;;;;;;45.93;24.97;;;;;;;-0.16;100.00;103377.13;5030072;28;20037;-58
2023/01/23 01:36:31;;;;;;;40.90;24.67;;;;;;;-0.15;100.00;103378.88;5029710;28;20455;-59
2023/01/23 01:38:57;;;;;;;40.70;23.87;;;;;;;-0.17;100.00;103380.63;5032380;28;20033;-59
2023/01/23 01:41:22;;;;;;;42.27;24.53;;;;;;;-0.16;100.00;103390.16;5023321;28;20475;-58
2023/01/23 01:43:47;;;;;;;42.93;24.53;;;;;;;-0.21;100.00;103371.13;5020537;28;20038;-57
2023/01/23 01:46:23;;;;;;;39.23;23.53;;;;;;;-0.12;100.00;103386.63;5022490;28;20064;-58
2023/01/23 01:49:07;;;;;;;45.20;24.80;;;;;;;-0.08;100.00;103387.44;5029279;28;20503;-58
2023/01/23 01:52:07;;;;;;;41.90;24.33;;;;;;;-0.09;100.00;103390.94;5021161;28;20439;-58
2023/01/23 01:54:42;;;;;;;39.07;24.43;;;;;;;-0.15;100.00;103378.88;5026595;28;20488;-59
2023/01/23 01:57:22;;;;;;;43.50;25.33;;;;;;;-0.06;100.00;103385.63;5027452;28;20033;-58
2023/01/23 01:59:57;;;;;;;46.37;24.83;;;;;;;-0.07;100.00;103376.09;5027268;28;20041;-59
2023/01/23 02:02:31;;;;;;;40.50;24.33;;;;;;;-0.06;100.00;103380.41;5029645;28;20029;-58
2023/01/23 02:05:06;;;;;;;40.43;23.57;;;;;;;-0.09;100.00;103373.53;5026358;28;20040;-58
2023/01/23 02:07:38;;;;;;;44.47;25.10;;;;;;;-0.06;100.00;103375.19;5023893;28;20107;-58
2023/01/23 02:10:06;;;;;;;40.83;24.47;;;;;;;-0.16;100.00;103364.97;5023320;28;20026;-58
2023/01/23 02:12:33;;;;;;;39.30;24.03;;;;;;;-0.11;100.00;103366.63;5024693;28;20640;-58
2023/01/23 02:14:59;;;;;;;44.50;24.77;;;;;;;-0.09;100.00;103370.06;5026372;28;20041;-58
2023/01/23 02:17:25;;;;;;;44.53;25.13;;;;;;;-0.07;100.00;103373.50;5020013;28;20036;-59
2023/01/23 02:20:03;;;;;;;40.57;24.63;;;;;;;-0.08;100.00;103377.00;5025369;28;20364;-58
2023/01/23 02:22:37;;;;;;;44.77;24.17;;;;;;;-0.06;100.00;103383.91;5029624;28;20108;-59
2023/01/23 02:25:16;;;;;;;40.03;23.67;;;;;;;-0.09;100.00;103376.16;5028085;28;20121;-58
2023/01/23 02:27:41;;;;;;;41.53;24.73;;;;;;;-0.08;100.00;103374.38;5027269;28;20033;-58
2023/01/23 02:30:08;;;;;;;41.37;23.87;;;;;;;-0.09;100.00;103373.53;5026199;28;20034;-58
2023/01/23 02:32:34;;;;;;;46.47;24.40;;;;;;;-0.12;100.00;103370.97;5023659;28;20037;-59
2023/01/23 02:35:07;;;;;;;41.37;23.63;;;;;;;-0.11;100.00;103379.66;5025174;28;20033;-58
2023/01/23 02:37:33;;;;;;;;;;;;;;;-0.02;100.00;103382.09;5025187;28;20041;-61
2023/01/23 02:40:01;;;;;;;42.27;24.07;;;;;;;-0.09;100.00;103377.88;5020746;28;20442;-57
2023/01/23 02:42:27;;;;;;;42.83;24.47;;;;;;;-0.09;100.00;103375.28;5019754;28;20041;-58
2023/01/23 02:44:54;;;;;;;44.83;25.20;;;;;;;-0.10;100.00;103376.16;5020252;28;20029;-58
2023/01/23 02:47:20;;;;;;;46.33;25.13;;;;;;;-0.07;100.00;103378.72;5021308;28;20052;-59
2023/01/23 02:49:45;;;;;;;45.37;25.83;;;;;;;-0.08;100.00;103369.16;5027913;28;20033;-59
2023/01/23 02:52:11;;;;;;;46.07;25.07;;;;;;;-0.08;100.00;103374.38;5021616;28;20030;-58
2023/01/23 02:54:39;;;;;;;46.13;25.07;;;;;;;-0.06;100.00;103369.97;5024336;28;20052;-58
2023/01/23 02:57:04;;;;;;;45.57;25.00;;;;;;;-0.05;100.00;103383.00;5021148;28;20057;-59
2023/01/23 03:02:14;;;;;;;48.13;25.37;;;;;;;-0.02;100.00;103376.88;5023694;28;20499;-60
2023/01/23 03:04:40;;;;;;;49.33;24.60;;;;;;;-0.04;100.00;103382.13;5018991;28;20037;-62
2023/01/23 03:07:05;;;;;;;46.73;25.67;;;;;;;-0.01;100.00;103378.59;5024124;28;20389;-59
2023/01/23 03:09:31;;;;;;;49.83;25.77;;;;;;;-0.03;100.00;103380.38;5020000;28;20026;-58
2023/01/23 03:11:56;;;;;;;45.13;25.67;;;;;;;-0.06;100.00;103377.81;5024351;28;20076;-59
2023/01/23 03:14:23;;;;;;;46.93;25.83;;;;;;;-0.08;100.00;103387.44;5026959;28;20480;-58
2023/01/23 03:16:50;;;;;;;44.33;24.60;;;;;;;-0.06;100.00;103383.03;5028649;28;20045;-58
2023/01/23 03:19:17;;;;;;;49.17;25.20;;;;;;;-0.09;100.00;103370.94;5029340;28;20394;-57
2023/01/23 03:21:43;;;;;;;43.97;24.63;;;;;;;-0.05;100.00;103382.16;5026589;28;20116;-58
2023/01/23 03:24:10;;;;;;;48.90;25.67;;;;;;;-0.02;100.00;103382.09;5026374;28;20112;-58
2023/01/23 03:26:44;;;;;;;40.73;24.60;;;;;;;-0.01;100.00;103381.19;5024620;28;20034;-59
2023/01/23 03:32:00;;;;;;;45.93;25.00;;;;;;;-0.03;100.00;103396.03;5027397;28;20103;-59
2023/01/23 03:34:26;;;;;;;47.60;26.33;;;;;;;-0.05;100.00;103390.00;5025304;28;20026;-59
2023/01/23 03:36:51;;;;;;;49.97;25.80;;;;;;;-0.03;100.00;103385.59;5025881;28;20033;-58
2023/01/23 03:42:00;;;;;;;44.37;25.37;;;;;;;-0.02;100.00;103376.88;5029719;28;20164;-58
2023/01/23 03:44:26;;;;;;;44.43;25.07;;;;;;;0.00;100.00;103390.78;5029305;28;20116;-59
2023/01/23 03:46:51;;;;;;;47.23;25.87;;;;;;;0.02;100.00;103391.59;5030358;28;20054;-58
2023/01/23 03:49:18;;;;;;;48.37;26.27;;;;;;;-0.01;100.00;103391.63;5030369;28;20526;-58
2023/01/23 03:51:43;;;;;;;47.47;25.57;;;;;;;0.01;100.00;103387.28;5031935;28;20038;-58
2023/01/23 03:54:09;;;;;;;48.67;25.50;;;;;;;0.03;100.00;103388.09;5027145;28;20167;-58
2023/01/23 03:56:34;;;;;;;45.50;25.03;;;;;;;0.05;100.00;103390.69;5019177;28;20050;-58
2023/01/23 03:59:00;;;;;;;50.23;26.30;;;;;;;0.06;100.00;103395.88;5027345;28;20161;-58
2023/01/23 04:01:25;;;;;;;41.87;24.63;;;;;;;0.04;100.00;103397.63;5030272;28;20025;-57
2023/01/23 04:03:50;;;;;;;43.60;25.13;;;;;;;0.06;100.00;103387.16;5027634;28;20025;-58
2023/01/23 04:06:17;;;;;;;43.47;25.03;;;;;;;0.03;100.00;103380.25;5032394;28;20507;-58
2023/01/23 04:08:43;;;;;;;42.07;24.63;;;;;;;0.04;100.00;103383.75;5029965;28;20053;-59
2023/01/23 04:11:09;;;;;;;45.40;25.73;;;;;;;0.03;100.00;103390.69;5027320;28;20692;-58
2023/01/23 04:13:35;;;;;;;46.67;25.73;;;;;;;-0.01;100.00;103389.03;5028205;28;20086;-58
2023/01/23 04:16:02;;;;;;;46.53;25.60;;;;;;;0.01;100.00;103392.50;5028318;28;20053;-58
2023/01/23 04:18:27;;;;;;;48.33;26.63;;;;;;;0.02;100.00;103386.38;5029391;28;20034;-58
2023/01/23 04:20:53;;;;;;;49.50;26.00;;;;;;;0.03;100.00;103393.31;5027977;28;20065;-58
2023/01/23 04:23:19;;;;;;;43.60;25.43;;;;;;;0.05;100.00;103383.69;5027893;28;20465;-58
2023/01/23 04:25:44;;;;;;;47.33;26.17;;;;;;;0.05;100.00;103383.69;5023169;28;20036;-57
2023/01/23 04:28:09;;;;;;;45.47;25.80;;;;;;;0.06;100.00;103387.16;5028906;28;20481;-58
2023/01/23 04:30:35;;;;;;;46.77;26.27;;;;;;;0.06;100.00;103390.66;5027339;28;20033;-59
2023/01/23 04:33:00;;;;;;;49.70;26.17;;;;;;;0.07;100.00;103392.38;5024419;28;20061;-58
2023/01/23 04:35:25;;;;;;;50.10;26.07;;;;;;;0.08;100.00;103399.31;5022465;28;20445;-58
2023/01/23 04:37:50;;;;;;;44.57;25.60;;;;;;;0.07;100.00;103397.59;5025161;28;20033;-55
2023/01/23 04:40:17;;;;;;;48.20;26.23;;;;;;;0.06;100.00;103398.47;5021616;28;20044;-56
2023/01/23 04:42:43;;;;;;;47.17;25.70;;;;;;;0.07;100.00;103402.81;5024486;28;20525;-56
2023/01/23 04:45:09;;;;;;;51.23;27.47;;;;;;;0.07;100.00;103402.81;5025865;28;20256;-55
2023/01/23 04:47:35;;;;;;;45.60;25.47;;;;;;;0.07;100.00;103402.81;5024402;28;20045;-58
2023/01/23 04:50:01;;;;;;;49.63;26.50;;;;;;;0.09;100.00;103405.38;5022933;28;20040;-59
2023/01/23 04:52:26;;;;;;;48.43;26.83;;;;;;;0.10;100.00;103401.88;5026308;28;20533;-55
2023/01/23 04:54:51;;;;;;;47.17;25.90;;;;;;;0.09;100.00;103406.25;5023360;28;20030;-56
2023/01/23 04:57:17;;;;;;;52.03;26.67;;;;;;;0.07;100.00;103405.41;5023517;28;20102;-55
2023/01/23 04:59:42;;;;;;;51.50;26.40;;;;;;;0.09;100.00;103406.25;5025000;28;20479;-55
2023/01/23 05:02:08;;;;;;;48.40;26.00;;;;;;;0.10;100.00;103413.16;5025289;28;20033;-56
2023/01/23 05:04:34;;;;;;;51.37;27.27;;;;;;;0.15;100.00;103414.84;5023126;28;20064;-57
2023/01/23 05:06:59;;;;;;;48.73;26.17;;;;;;;0.14;100.00;103419.19;5025761;28;20771;-56
2023/01/23 05:09:25;;;;;;;50.60;26.50;;;;;;;0.12;100.00;103414.03;5028948;28;20030;-56
2023/01/23 05:11:50;;;;;;;49.67;26.57;;;;;;;0.14;100.00;103413.97;5028827;28;20037;-55
2023/01/23 05:14:15;;;;;;;49.57;26.57;;;;;;;0.13;100.00;103413.13;5021278;28;20101;-55
2023/01/23 05:16:41;;;;;;;49.23;26.13;;;;;;;0.13;100.00;103413.13;5025010;28;20068;-56
2023/01/23 05:19:06;;;;;;;47.63;26.33;;;;;;;0.13;100.00;103413.13;5030092;28;20037;-55
2023/01/23 05:21:31;;;;;;;50.27;27.13;;;;;;;0.14;100.00;103421.78;5019111;28;20026;-56
2023/01/23 05:23:56;;;;;;;49.43;26.27;;;;;;;0.15;100.00;103414.84;5031925;28;20037;-55
2023/01/23 05:26:22;;;;;;;48.10;25.67;;;;;;;0.13;100.00;103418.34;5029713;28;20529;-55
2023/01/23 05:28:47;;;;;;;50.63;26.10;;;;;;;0.12;100.00;103421.84;5029711;28;20393;-53
2023/01/23 05:31:12;;;;;;;50.93;27.03;;;;;;;0.13;100.00;103427.91;5025996;28;20103;-56
2023/01/23 05:33:39;;;;;;;55.80;29.33;;;;;;;0.13;100.00;103423.56;5025386;28;20412;-55
2023/01/23 05:36:05;;;;;;;52.43;28.20;;;;;;;0.11;100.00;103427.94;5027082;28;20115;-56
2023/01/23 05:38:30;;;;;;;52.23;27.17;;;;;;;0.10;100.00;103423.59;5031997;28;20101;-56
2023/01/23 05:40:55;;;;;;;55.20;26.73;;;;;;;0.11;100.00;103424.47;5030541;28;20059;-56
2023/01/23 05:43:21;;;;;;;51.50;27.13;;;;;;;0.13;100.00;103423.56;5029495;28;20079;-55
2023/01/23 05:45:46;;;;;;;54.13;28.13;;;;;;;0.11;100.00;103430.53;5028959;28;20029;-57
2023/01/23 05:48:11;;;;;;;52.63;28.03;;;;;;;0.15;100.00;103430.50;5029802;28;20049;-56
2023/01/23 05:50:37;;;;;;;51.40;28.27;;;;;;;0.12;100.00;103427.06;5026333;28;20034;-55
2023/01/23 05:53:03;;;;;;;48.63;27.20;;;;;;;0.14;100.00;103440.06;5032372;28;20504;-56
2023/01/23 05:55:28;;;;;;;54.87;27.87;;;;;;;0.13;100.00;103434.00;5026391;28;20083;-55
2023/01/23 05:57:53;;;;;;;54.30;28.23;;;;;;;0.16;100.00;103432.22;5020591;28;20381;-55
2023/01/23 06:00:19;;;;;;;48.13;26.93;;;;;;;0.18;100.00;103440.88;5025101;28;20056;-57
2023/01/23 06:02:46;;;;;;;52.23;27.67;;;;;;;0.17;100.00;103439.16;5020952;28;20068;-56
2023/01/23 06:05:11;;;;;;;51.40;28.13;;;;;;;0.18;100.00;103446.09;5025524;28;20037;-56
2023/01/23 06:07:36;;;;;;;53.57;27.37;;;;;;;0.17;100.00;103452.19;5027133;28;20033;-55
2023/01/23 06:10:03;;;;;;;51.10;27.03;;;;;;;0.18;100.00;103446.09;5024279;28;20461;-56
2023/01/23 06:12:28;;;;;;;48.60;27.53;;;;;;;0.18;100.00;103446.09;5023754;28;20827;-56
2023/01/23 06:14:53;;;;;;;50.33;27.03;;;;;;;0.20;100.00;103454.75;5024226;28;20029;-57
2023/01/23 06:17:18;;;;;;;49.13;27.93;;;;;;;0.19;100.00;103443.44;5020860;28;20128;-58
2023/01/23 06:19:46;;;;;;;49.67;27.23;;;;;;;0.19;100.00;103451.28;5022380;28;20057;-58
2023/01/23 06:22:12;;;;;;;58.17;28.67;;;;;;;0.20;100.00;103444.31;5024700;28;20025;-57
2023/01/23 06:24:37;;;;;;;48.63;27.20;;;;;;;0.22;100.00;103455.59;5023844;28;20152;-57
2023/01/23 06:27:07;;;;;;;50.27;26.70;;;;;;;0.22;100.00;103458.19;5023494;28;20033;-57
2023/01/23 06:29:33;;;;;;;53.73;27.67;;;;;;;0.22;100.00;103447.75;5024196;28;20029;-59
2023/01/23 06:31:58;;;;;;;52.23;27.27;;;;;;;0.23;100.00;103454.69;5021701;28;20667;-58
2023/01/23 06:34:23;;;;;;;49.77;27.37;;;;;;;0.22;100.00;103452.97;5023366;28;20051;-57
2023/01/23 06:36:49;;;;;;;49.43;28.07;;;;;;;0.24;100.00;103456.41;5029323;28;20030;-57
2023/01/23 06:39:15;;;;;;;49.73;26.83;;;;;;;0.24;100.00;103461.63;5024294;28;20034;-57
2023/01/23 06:41:41;;;;;;;50.07;27.47;;;;;;;0.25;100.00;103468.59;5022658;28;20489;-56
2023/01/23 06:44:06;;;;;;;51.67;27.03;;;;;;;0.26;100.00;103459.88;5024118;28;20037;-59
2023/01/23 06:46:32;;;;;;;51.17;27.67;;;;;;;0.26;100.00;103454.66;5030794;28;20449;-59
2023/01/23 06:48:58;;;;;;;51.03;27.70;;;;;;;0.26;100.00;103455.50;5016992;28;20044;-57
2023/01/23 06:51:23;;;;;;;50.10;27.03;;;;;;;0.28;100.00;103458.09;5029885;28;20389;-56
2023/01/23 06:53:49;;;;;;;53.10;27.23;;;;;;;0.29;100.00;103453.72;5017179;28;20044;-57
2023/01/23 06:56:14;;;;;;;51.63;27.57;;;;;;;0.29;100.00;103457.19;5031530;28;20492;-57
2023/01/23 06:58:43;;;;;;;52.67;28.03;;;;;;;0.31;100.00;103468.47;5031645;28;20026;-57
2023/01/23 07:01:17;;;;;;;54.07;28.07;;;;;;;0.31;100.00;103471.09;5027662;28;20477;-57
2023/01/23 07:03:44;;;;;;;54.87;28.20;;;;;;;0.32;100.00;103475.41;5024648;28;20037;-57
2023/01/23 07:06:11;;;;;;;48.23;26.77;;;;;;;0.32;100.00;103475.41;5021474;28;20041;-57
2023/01/23 07:08:37;;;;;;;49.83;27.53;;;;;;;0.30;100.00;103471.94;5021997;28;20038;-56
2023/01/23 07:11:02;;;;;;;50.27;26.90;;;;;;;0.31;100.00;103468.47;5018168;28;20026;-56
2023/01/23 07:13:27;;;;;;;45.83;27.07;;;;;;;0.33;100.00;103481.47;5022703;28;20107;-57
2023/01/23 07:15:53;;;;;;;48.57;27.43;;;;;;;0.33;100.00;103487.56;5021539;28;20966;-57
2023/01/23 07:18:19;;;;;;;47.47;27.33;;;;;;;0.35;100.00;103483.16;5019943;28;21313;-57
2023/01/23 07:20:46;;;;;;;48.40;26.40;;;;;;;0.35;100.00;103483.16;5023358;28;20493;-57
2023/01/23 07:23:12;;;;;;;49.10;26.87;;;;;;;0.36;100.00;103481.44;5027631;28;20044;-57
2023/01/23 07:25:38;;;;;;;48.63;26.60;;;;;;;0.38;100.00;103483.13;5029079;28;20037;-57
2023/01/23 07:28:04;;;;;;;47.77;26.60;;;;;;;0.39;100.00;103491.81;5016028;28;20053;-57
2023/01/23 07:30:30;;;;;;;47.13;27.07;;;;;;;0.38;100.00;103496.19;5023929;28;20048;-57
2023/01/23 07:32:57;;;;;;;49.40;27.23;;;;;;;0.39;100.00;103503.13;5020833;28;20040;-57
2023/01/23 07:35:22;;;;;;;47.93;26.90;;;;;;;0.40;100.00;103509.22;5029092;28;20021;-59
2023/01/23 07:37:48;;;;;;;46.53;26.70;;;;;;;0.42;100.00;103507.44;5025890;28;20043;-57
2023/01/23 07:40:13;;;;;;;48.53;27.10;;;;;;;0.42;100.00;103504.81;5029306;28;20041;-58
2023/01/23 07:42:40;;;;;;;44.90;26.00;;;;;;;0.45;100.00;103501.28;5030247;28;20435;-57
2023/01/23 07:45:06;;;;;;;47.00;27.90;;;;;;;0.43;100.00;103508.31;5025026;28;20021;-58
2023/01/23 07:47:32;;;;;;;46.43;26.77;;;;;;;0.40;100.00;103510.06;5023004;28;20111;-57
2023/01/23 07:49:57;;;;;;;48.10;27.40;;;;;;;0.43;100.00;103518.75;5020383;28;20033;-57
2023/01/23 07:52:22;;;;;;;48.80;27.30;;;;;;;0.44;100.00;103512.63;5027432;28;20037;-57
2023/01/23 07:54:48;;;;;;;47.83;28.87;;;;;;;0.45;100.00;103516.94;5019835;28;20428;-57
2023/01/23 07:57:13;;;;;;;48.73;27.03;;;;;;;0.45;100.00;103522.16;5027416;28;20545;-58
2023/01/23 07:59:38;;;;;;;46.40;26.83;;;;;;;0.47;100.00;103528.22;5022849;28;20092;-57
2023/01/23 08:02:03;;;;;;;47.53;27.63;;;;;;;0.45;100.00;103527.41;5023165;28;20044;-58
2023/01/23 08:04:29;;;;;;;45.63;26.13;;;;;;;0.45;100.00;103527.41;5028772;28;20392;-57
2023/01/23 08:06:54;;;;;;;45.60;26.63;;;;;;;0.47;100.00;103526.47;5028512;28;20063;-57
2023/01/23 08:09:19;;;;;;;47.30;26.57;;;;;;;0.51;100.00;103522.06;5017854;28;20129;-57
2023/01/23 08:11:44;;;;;;;46.70;27.60;;;;;;;0.50;100.00;103526.41;5022880;28;20057;-58
2023/01/23 08:14:10;;;;;;;47.03;27.47;;;;;;;0.51;100.00;103522.94;5028892;28;20076;-58
2023/01/23 08:16:35;;;;;;;44.13;27.03;;;;;;;0.51;100.00;103525.53;5031773;28;20029;-59
2023/01/23 08:19:05;;;;;;;43.10;25.43;;;;;;;0.49;100.00;103529.06;5032570;28;20040;-58
2023/01/23 08:21:30;;;;;;;43.77;26.67;;;;;;;0.53;100.00;103538.53;5032477;28;20032;-58
2023/01/23 08:23:55;;;;;;;45.87;26.30;;;;;;;0.55;100.00;103536.78;5024765;28;20034;-57
2023/01/23 08:26:21;;;;;;;43.77;26.10;;;;;;;0.55;100.00;103528.94;5031669;28;20034;-58
2023/01/23 08:28:46;;;;;;;43.43;25.70;;;;;;;0.57;100.00;103537.59;5032117;28;20025;-58
2023/01/23 08:31:12;;;;;;;49.13;25.80;;;;;;;0.56;100.00;103533.28;5028504;28;20030;-57
2023/01/23 08:33:38;;;;;;;42.90;25.70;;;;;;;0.60;100.00;103534.94;5030164;28;20025;-59
2023/01/23 08:36:05;;;;;;;45.77;27.83;;;;;;;0.62;100.00;103535.78;5025509;28;20055;-61
2023/01/23 08:38:31;;;;;;;45.57;26.73;;;;;;;0.63;100.00;103547.94;5026218;28;20039;-61
2023/01/23 08:41:01;;;;;;;44.70;26.03;;;;;;;0.62;100.00;103541.00;5026759;28;20033;-61
2023/01/23 08:43:26;;;;;;;42.03;25.27;;;;;;;0.63;100.00;103555.78;5031909;28;20684;-60
2023/01/23 08:45:54;;;;;;;45.53;26.20;;;;;;;0.64;100.00;103548.81;5034347;28;20041;-61
2023/01/23 08:48:21;;;;;;;42.40;25.67;;;;;;;0.65;100.00;103555.75;5026345;28;20045;-61
2023/01/23 08:50:46;;;;;;;40.03;24.87;;;;;;;0.66;100.00;103552.25;5027653;28;20070;-60
2023/01/23 08:53:12;;;;;;;46.77;26.13;;;;;;;0.68;100.00;103547.00;5027284;28;20511;-60
2023/01/23 08:55:38;;;;;;;46.83;26.80;;;;;;;0.69;100.00;103552.16;5028934;28;20033;-61
2023/01/23 08:58:04;;;;;;;44.67;25.67;;;;;;;0.70;100.00;103559.16;5022813;28;20034;-62
2023/01/23 09:00:29;;;;;;;42.33;25.77;;;;;;;0.72;100.00;103556.47;5030879;28;20053;-61
2023/01/23 09:02:58;;;;;;;43.53;26.83;;;;;;;0.75;100.00;103556.44;5029346;28;20461;-61
2023/01/23 09:05:23;;;;;;;42.77;26.30;;;;;;;0.85;100.00;103557.97;5030222;28;20404;-61
2023/01/23 09:07:49;;;;;;;42.47;25.33;;;;;;;0.79;100.00;103552.88;5030372;28;20044;-59
2023/01/23 09:10:14;;;;;;;41.27;24.97;;;;;;;0.79;100.00;103556.34;5032265;28;20086;-58
2023/01/23 09:12:41;;;;;;;40.97;25.00;;;;;;;0.80;100.00;103557.22;5020380;28;20030;-58
2023/01/23 09:15:07;;;;;;;41.60;26.07;;;;;;;0.83;100.00;103564.97;5025904;28;20040;-58
2023/01/23 09:17:32;;;;;;;41.80;25.07;;;;;;;0.91;100.00;103568.31;5025855;28;20025;-58
2023/01/23 09:19:59;;;;;;;39.77;24.67;;;;;;;0.88;100.00;103565.75;5028326;28;20524;-57
2023/01/23 09:22:25;;;;;;;41.73;25.63;;;;;;;0.87;100.00;103561.41;5022967;28;20026;-57
2023/01/23 09:24:50;;;;;;;45.13;26.57;;;;;;;0.90;100.00;103561.34;5020790;28;20034;-57
2023/01/23 09:27:15;;;;;;;41.53;25.90;;;;;;;0.91;100.00;103552.63;5030359;28;20022;-58
2023/01/23 09:29:40;;;;;;;42.40;24.87;;;;;;;0.93;100.00;103548.22;5020130;28;20022;-58
2023/01/23 09:32:06;;;;;;;42.87;26.33;;;;;;;0.96;100.00;103554.28;5017909;28;20034;-57
2023/01/23 09:34:31;;;;;;;42.87;25.87;;;;;;;1.00;100.00;103556.81;5025652;28;20025;-57
2023/01/23 09:36:56;;;;;;;38.93;24.27;;;;;;;1.02;100.00;103554.16;5032408;28;20025;-57
2023/01/23 09:39:22;;;;;;;42.27;25.07;;;;;;;1.04;100.00;103557.63;5027929;28;20058;-57
2023/01/23 09:41:48;;;;;;;42.90;25.03;;;;;;;1.07;100.00;103553.19;5029197;28;20132;-58
2023/01/23 09:44:30;;;;;;;40.53;25.17;;;;;;;1.12;100.00;103560.91;5021578;28;20091;-57
2023/01/23 09:47:03;;;;;;;40.53;24.63;;;;;;;1.14;100.00;103564.34;5027711;28;20121;-57
2023/01/23 09:49:40;;;;;;;43.07;23.97;;;;;;;1.17;100.00;103569.53;5029008;28;20041;-58
2023/01/23 09:52:15;;;;;;;40.03;24.90;;;;;;;1.18;100.00;103576.47;5025518;28;20041;-57
2023/01/23 09:54:56;;;;;;;39.77;24.67;;;;;;;1.18;100.00;103573.84;5018883;28;20109;-57
2023/01/23 09:57:29;;;;;;;39.90;24.67;;;;;;;1.20;100.00;103585.13;5027873;28;20030;-58
2023/01/23 10:00:02;;;;;;;39.05;24.15;;;;;;;1.24;100.00;103585.09;5031569;28;20485;-57
2023/01/23 10:02:27;;;;;;;;;;;;;;;1.37;100.00;103581.31;5024110;28;20495;-57
2023/01/23 10:04:55;;;;;;;42.40;25.23;;;;;;;1.28;100.00;103581.53;5019328;28;19956;-58
2023/01/23 10:07:42;;;;;;;40.60;24.30;;;;;;;1.29;100.00;103583.25;5029261;28;20029;-58
2023/01/23 10:10:30;;;;;;;40.67;27.20;;;;;;;1.32;100.00;103577.94;5028157;28;20477;-58
2023/01/23 10:13:12;;;;;;;47.40;30.83;;;;;;;1.34;100.00;103570.94;5030449;28;20040;-57
2023/01/23 10:16:06;;;;;;;40.30;25.87;;;;;;;1.42;100.00;103579.47;5026307;28;20516;-58
2023/01/23 10:18:43;;;;;;;42.30;25.08;;;;;;;1.36;100.00;103574.38;5029079;28;20044;-58
2023/01/23 10:21:11;;;;;;;41.67;24.60;;;;;;;1.38;100.00;103577.78;5030030;28;20520;-58
2023/01/23 10:23:42;;;;;;;39.10;24.90;;;;;;;1.38;100.00;103583.03;5028600;28;20033;-59
2023/01/23 10:26:21;;;;;;;39.23;25.00;;;;;;;1.41;100.00;103588.19;5026003;28;20672;-57
2023/01/23 10:28:46;;;;;;;38.30;24.43;;;;;;;1.41;100.00;103582.97;5026727;28;20036;-58
2023/01/23 10:31:32;;;;;;;37.47;23.77;;;;;;;1.43;100.00;103586.41;5023707;28;20033;-57
2023/01/23 10:34:25;;;;;;;35.70;23.20;;;;;;;1.46;100.00;103595.94;5022139;28;20029;-58
2023/01/23 10:37:05;;;;;;;;;;;;;;;1.54;100.00;103585.31;5015248;28;20372;-58
2023/01/23 10:39:46;;;;;;;36.43;21.37;;;;;;;1.44;100.00;103582.88;5023948;28;19913;-57
2023/01/23 10:42:12;;;;;;;35.90;22.13;;;;;;;1.43;100.00;103578.56;5030059;28;20026;-58
2023/01/23 10:44:38;;;;;;;36.87;22.13;;;;;;;1.44;100.00;103577.66;5030089;28;20029;-57
2023/01/23 10:47:16;;;;;;;37.07;23.17;;;;;;;1.46;100.00;103578.50;5031590;28;20140;-59
2023/01/23 10:49:44;;;;;;;41.53;22.40;;;;;;;1.47;100.00;103575.00;5020765;28;20036;-57
2023/01/23 10:52:43;;;;;;;34.77;22.23;;;;;;;1.53;100.00;103583.59;5030995;28;20057;-57
2023/01/23 10:55:18;;;;;;;37.80;22.60;;;;;;;1.52;100.00;103580.13;5021989;28;20452;-59
2023/01/23 10:57:47;;;;;;;37.57;22.80;;;;;;;1.52;100.00;103569.66;5016273;28;20405;-58
2023/01/23 11:00:36;;;;;;;37.23;23.03;;;;;;;1.57;100.00;103575.63;5023426;28;20021;-61
2023/01/23 11:03:25;;;;;;;37.73;22.83;;;;;;;1.57;100.00;103577.38;5026084;28;20030;-61
2023/01/23 11:05:53;;;;;;;39.20;22.80;;;;;;;1.56;100.00;103565.22;5028257;28;20400;-60
2023/01/23 11:08:37;;;;;;;35.10;22.10;;;;;;;1.58;100.00;103584.38;5029060;28;20041;-60
2023/01/23 11:11:14;;;;;;;37.73;23.33;;;;;;;1.60;100.00;103572.09;5027460;28;20033;-61
2023/01/23 11:13:42;;;;;;;35.60;22.97;;;;;;;1.59;100.00;103568.59;5021002;28;20025;-57
2023/01/23 11:16:13;;;;;;;34.70;22.63;;;;;;;1.60;100.00;103572.09;5029314;28;20112;-57
2023/01/23 11:18:41;;;;;;;35.70;22.40;;;;;;;1.63;100.00;103572.00;5028956;28;20064;-58